createdAt,value
2019-04-21T00:04:55.518Z,9.99
2019-04-21T00:07:45.032Z,10.04
2019-04-21T00:13:08.061Z,9.96
2019-04-21T00:15:53.904Z,9.60
2019-04-21T00:18:40.729Z,9.67
2019-04-21T00:21:22.506Z,9.67
2019-04-21T00:23:56.158Z,9.67
2019-04-21T00:26:57.811Z,9.68
2019-04-21T00:29:42.531Z,9.64
2019-04-21T00:32:05.545Z,9.60
2019-04-21T00:34:53.509Z,9.59
2019-04-21T00:37:54.269Z,9.59
2019-04-21T00:41:05.524Z,9.56
2019-04-21T00:43:44.768Z,9.55
2019-04-21T00:46:36.307Z,9.50
2019-04-21T00:49:18.143Z,9.39
2019-04-21T00:55:05.897Z,9.17
2019-04-21T00:57:51.421Z,9.11
2019-04-21T01:00:20.231Z,9.19
2019-04-21T01:05:52.864Z,9.27
2019-04-21T01:08:39.984Z,9.22
2019-04-21T01:13:58.270Z,9.22
2019-04-21T01:16:51.385Z,9.10
2019-04-21T01:19:33.179Z,8.92
2019-04-21T01:25:30.269Z,8.93
2019-04-21T01:30:53.544Z,9.02
2019-04-21T01:33:34.883Z,9.05
2019-04-21T01:39:15.041Z,9.01
2019-04-21T01:45:26.472Z,8.88
2019-04-21T01:48:06.646Z,8.91
2019-04-21T01:50:51.639Z,8.87
2019-04-21T01:56:34.698Z,8.89
2019-04-21T01:58:56.404Z,8.78
2019-04-21T02:02:05.177Z,8.76
2019-04-21T02:04:57.789Z,8.79
2019-04-21T02:07:32.622Z,8.62
2019-04-21T02:10:04.809Z,8.63
2019-04-21T02:12:59.730Z,8.56
2019-04-21T02:19:05.811Z,8.49
2019-04-21T02:21:39.290Z,8.43
2019-04-21T02:24:34.940Z,8.30
2019-04-21T02:27:16.078Z,8.31
2019-04-21T02:29:55.443Z,8.32
2019-04-21T02:32:43.427Z,8.23
2019-04-21T02:35:36.400Z,8.24
2019-04-21T02:40:46.620Z,8.26
2019-04-21T02:46:27.104Z,8.06
2019-04-21T02:49:24.118Z,8.02
2019-04-21T03:03:27.671Z,8.23
2019-04-21T03:09:28.025Z,8.13
2019-04-21T03:17:49.884Z,8.09
2019-04-21T03:20:51.012Z,8.08
2019-04-21T03:23:25.749Z,8.05
2019-04-21T03:26:00.949Z,8.23
2019-04-21T03:28:30.138Z,8.02
2019-04-21T03:31:42.387Z,7.83
2019-04-21T03:39:01.336Z,7.81
2019-04-21T03:42:08.750Z,7.72
2019-04-21T03:47:34.532Z,7.86
2019-04-21T03:55:50.896Z,7.72
2019-04-21T03:58:47.335Z,7.84
2019-04-21T04:02:10.717Z,7.85
2019-04-21T04:13:57.921Z,7.78
2019-04-21T04:19:44.604Z,7.78
2019-04-21T04:25:19.287Z,7.53
2019-04-21T04:27:59.783Z,7.65
2019-04-21T04:33:30.714Z,7.69
2019-04-21T04:45:10.171Z,7.57
2019-04-21T04:47:44.097Z,7.59
2019-04-21T04:49:59.455Z,7.55
2019-04-21T04:53:07.700Z,7.52
2019-04-21T05:01:21.461Z,7.70
2019-04-21T05:09:37.092Z,7.93
2019-04-21T05:11:56.318Z,7.86
2019-04-21T05:14:51.877Z,8.00
2019-04-21T05:22:42.361Z,8.28
2019-04-21T05:25:26.718Z,8.37
2019-04-21T05:28:15.157Z,8.41
2019-04-21T05:31:17.977Z,8.58
2019-04-21T05:37:25.638Z,8.78
2019-04-21T05:40:05.459Z,9.18
2019-04-21T05:46:00.734Z,9.11
2019-04-21T05:54:31.156Z,9.60
2019-04-21T05:57:27.266Z,9.74
2019-04-21T06:00:39.085Z,10.01
2019-04-21T06:09:30.899Z,10.25
2019-04-21T06:12:14.754Z,10.38
2019-04-21T06:14:54.570Z,10.51
2019-04-21T06:17:52.567Z,10.93
2019-04-21T06:20:34.957Z,11.53
2019-04-21T06:23:20.291Z,11.94
2019-04-21T06:25:54.964Z,12.10
2019-04-21T06:28:43.472Z,12.65
2019-04-21T06:31:42.599Z,13.18
2019-04-21T06:34:06.752Z,13.56
2019-04-21T06:36:56.720Z,13.55
2019-04-21T06:42:26.670Z,14.71
2019-04-21T06:45:10.256Z,14.87
2019-04-21T06:48:02.825Z,14.66
2019-04-21T06:50:45.815Z,15.10
2019-04-21T06:53:35.998Z,15.28
2019-04-21T06:56:09.239Z,15.36
2019-04-21T06:58:35.583Z,15.56
2019-04-21T07:01:34.290Z,15.90
2019-04-21T07:04:36.814Z,16.14
2019-04-21T07:06:59.429Z,16.41
2019-04-21T07:09:31.856Z,16.35
2019-04-21T07:12:04.178Z,16.64
2019-04-21T07:15:14.788Z,17.05
2019-04-21T07:18:12.657Z,17.31
2019-04-21T07:20:45.023Z,17.52
2019-04-21T07:24:10.365Z,17.59
2019-04-21T07:26:51.579Z,17.62
2019-04-21T07:32:04.620Z,18.33
2019-04-21T07:34:52.206Z,18.63
2019-04-21T07:37:30.649Z,18.79
2019-04-21T07:40:05.197Z,18.97
2019-04-21T07:42:49.903Z,19.07
2019-04-21T07:45:13.641Z,19.39
2019-04-21T07:48:35.739Z,19.66
2019-04-21T07:51:25.367Z,20.09
2019-04-21T07:54:18.372Z,20.18
2019-04-21T07:56:52.434Z,20.35
2019-04-21T07:59:56.547Z,20.19
2019-04-21T08:05:08.815Z,20.02
2019-04-21T08:07:55.756Z,20.44
2019-04-21T08:10:38.106Z,20.98
2019-04-21T08:13:28.821Z,20.58
2019-04-21T08:15:50.979Z,20.77
2019-04-21T08:18:47.215Z,21.01
2019-04-21T08:21:24.631Z,21.60
2019-04-21T08:24:20.046Z,21.17
2019-04-21T08:27:04.950Z,20.63
2019-04-21T08:32:07.845Z,21.22
2019-04-21T08:35:22.194Z,21.72
2019-04-21T08:37:48.479Z,22.06
2019-04-21T08:40:27.054Z,22.21
2019-04-21T08:46:01.096Z,23.03
2019-04-21T08:49:03.761Z,22.61
2019-04-21T08:51:57.207Z,23.10
2019-04-21T08:54:49.632Z,23.21
2019-04-21T09:00:32.479Z,23.66
2019-04-21T09:06:18.963Z,23.92
2019-04-21T09:08:39.255Z,24.48
2019-04-21T09:11:08.164Z,24.41
2019-04-21T09:13:40.938Z,24.38
2019-04-21T09:16:57.737Z,24.73
2019-04-21T09:19:58.038Z,24.78
2019-04-21T09:23:00.500Z,24.82
2019-04-21T09:28:57.136Z,25.29
2019-04-21T09:31:43.524Z,25.18
2019-04-21T09:34:38.526Z,25.30
2019-04-21T09:37:26.512Z,25.78
2019-04-21T09:42:21.901Z,25.80
2019-04-21T09:45:17.630Z,25.52
2019-04-21T09:48:02.755Z,25.17
2019-04-21T09:50:24.839Z,25.42
2019-04-21T09:52:57.701Z,25.56
2019-04-21T09:56:11.769Z,25.61
2019-04-21T09:58:46.857Z,25.93
2019-04-21T10:01:46.183Z,24.76
2019-04-21T10:04:10.365Z,25.59
2019-04-21T10:06:49.847Z,26.09
2019-04-21T10:09:29.472Z,26.01
2019-04-21T10:11:55.551Z,26.16
2019-04-21T10:14:49.677Z,25.90
2019-04-21T10:20:46.686Z,27.11
2019-04-21T10:23:39.992Z,27.27
2019-04-21T10:26:19.065Z,27.56
2019-04-21T10:32:07.215Z,27.42
2019-04-21T10:34:47.490Z,27.96
2019-04-21T10:37:40.077Z,27.07
2019-04-21T10:40:08.009Z,27.07
2019-04-21T10:42:35.363Z,27.97
2019-04-21T10:45:28.669Z,27.19
2019-04-21T10:47:54.870Z,27.95
2019-04-21T10:51:10.745Z,26.71
2019-04-21T10:54:15.858Z,28.06
2019-04-21T10:56:56.550Z,27.94
2019-04-21T10:59:37.442Z,27.96
2019-04-21T11:02:19.012Z,28.19
2019-04-21T11:04:46.897Z,28.26
2019-04-21T11:08:08.899Z,28.47
2019-04-21T11:10:41.306Z,28.25
2019-04-21T11:13:20.835Z,27.72
2019-04-21T11:15:47.527Z,27.81
2019-04-21T11:18:21.924Z,27.32
2019-04-21T11:21:09.165Z,27.65
2019-04-21T11:23:50.050Z,26.36
2019-04-21T11:26:29.997Z,26.02
2019-04-21T11:29:09.084Z,27.09
2019-04-21T11:35:07.379Z,27.69
2019-04-21T11:37:46.507Z,27.22
2019-04-21T11:40:25.531Z,27.26
2019-04-21T11:43:05.989Z,27.34
2019-04-21T11:45:46.308Z,26.96
2019-04-21T11:48:30.282Z,25.99
2019-04-21T11:50:57.286Z,27.26
2019-04-21T11:56:55.291Z,28.11
2019-04-21T12:02:30.393Z,28.25
2019-04-21T12:05:17.325Z,27.54
2019-04-21T12:07:51.331Z,27.68
2019-04-21T12:10:45.099Z,27.70
2019-04-21T12:13:32.251Z,27.61
2019-04-21T12:16:12.852Z,28.08
2019-04-21T12:18:52.403Z,28.31
2019-04-21T12:21:46.647Z,28.40
2019-04-21T12:24:13.308Z,28.02
2019-04-21T12:26:52.334Z,28.32
2019-04-21T12:29:31.557Z,28.25
2019-04-21T12:32:17.956Z,26.52
2019-04-21T12:35:06.115Z,25.97
2019-04-21T12:40:58.566Z,25.72
2019-04-21T12:43:44.576Z,25.20
2019-04-21T12:46:25.591Z,25.25
2019-04-21T12:49:05.409Z,24.92
2019-04-21T12:51:31.430Z,25.12
2019-04-21T12:53:57.522Z,25.24
2019-04-21T12:56:37.938Z,25.37
2019-04-21T12:59:05.038Z,25.13
2019-04-21T13:01:59.086Z,25.51
2019-04-21T13:04:33.557Z,25.67
2019-04-21T13:07:07.806Z,25.17
2019-04-21T13:09:42.082Z,25.30
2019-04-21T13:12:35.619Z,25.36
2019-04-21T13:18:33.841Z,25.48
2019-04-21T13:21:14.023Z,25.84
2019-04-21T13:23:58.821Z,25.37
2019-04-21T13:29:38.562Z,24.64
2019-04-21T13:32:39.173Z,24.68
2019-04-21T13:35:21.112Z,25.23
2019-04-21T13:38:31.044Z,25.10
2019-04-21T13:41:29.804Z,24.93
2019-04-21T13:46:49.018Z,24.25
2019-04-21T13:49:21.490Z,24.11
2019-04-21T13:52:08.834Z,24.25
2019-04-21T13:54:41.617Z,24.55
2019-04-21T13:57:08.363Z,24.79
2019-04-21T13:59:59.242Z,24.78
2019-04-21T14:02:38.756Z,24.70
2019-04-21T14:05:18.513Z,24.44
2019-04-21T14:07:46.031Z,25.03
2019-04-21T14:10:39.809Z,25.02
2019-04-21T14:13:06.713Z,24.09
2019-04-21T14:16:00.104Z,24.34
2019-04-21T14:18:40.579Z,24.40
2019-04-21T14:21:21.109Z,24.53
2019-04-21T14:26:47.830Z,23.90
2019-04-21T14:29:41.722Z,24.19
2019-04-21T14:32:16.094Z,24.17
2019-04-21T14:35:27.232Z,23.69
2019-04-21T14:38:07.076Z,23.50
2019-04-21T14:40:35.081Z,23.60
2019-04-21T14:43:08.062Z,23.34
2019-04-21T14:46:00.987Z,23.16
2019-04-21T14:51:45.402Z,23.39
2019-04-21T14:54:33.008Z,23.07
2019-04-21T14:57:21.101Z,23.12
2019-04-21T14:59:47.279Z,23.07
2019-04-21T15:05:45.133Z,23.53
2019-04-21T15:08:33.381Z,23.55
2019-04-21T15:14:06.125Z,23.35
2019-04-21T15:16:44.917Z,22.94
2019-04-21T15:19:32.762Z,22.69
2019-04-21T15:22:12.649Z,22.49
2019-04-21T15:24:56.311Z,22.49
2019-04-21T15:27:36.920Z,22.52
2019-04-21T15:33:12.708Z,22.29
2019-04-21T15:35:47.010Z,22.26
2019-04-21T15:38:35.873Z,22.23
2019-04-21T15:41:06.410Z,22.68
2019-04-21T15:43:57.295Z,22.26
2019-04-21T15:46:45.989Z,22.09
2019-04-21T15:49:13.295Z,21.80
2019-04-21T15:55:26.447Z,22.03
2019-04-21T16:01:04.837Z,21.85
2019-04-21T16:07:09.124Z,21.63
2019-04-21T16:09:48.200Z,21.69
2019-04-21T16:12:27.775Z,21.65
2019-04-21T16:18:12.174Z,21.52
2019-04-21T16:20:45.995Z,21.22
2019-04-21T16:23:26.507Z,21.11
2019-04-21T16:31:44.218Z,20.96
2019-04-21T16:34:34.476Z,20.85
2019-04-21T16:37:05.642Z,20.75
2019-04-21T16:39:45.329Z,20.73
2019-04-21T16:42:24.769Z,20.72
2019-04-21T16:50:49.805Z,20.06
2019-04-21T16:53:32.294Z,19.83
2019-04-21T16:56:20.296Z,19.98
2019-04-21T17:04:38.224Z,19.66
2019-04-21T17:07:32.314Z,19.76
2019-04-21T17:10:20.267Z,19.60
2019-04-21T17:12:59.981Z,19.56
2019-04-21T17:15:53.100Z,19.48
2019-04-21T17:18:36.872Z,19.47
2019-04-21T17:21:03.116Z,19.51
2019-04-21T17:23:43.897Z,19.53
2019-04-21T17:26:23.690Z,19.52
2019-04-21T17:29:02.788Z,19.42
2019-04-21T17:41:30.620Z,18.93
2019-04-21T18:02:08.057Z,18.46
2019-04-21T18:05:02.402Z,18.15
2019-04-21T18:07:31.657Z,18.24
2019-04-21T18:10:30.671Z,18.20
2019-04-21T18:16:15.850Z,17.94
2019-04-21T18:18:52.929Z,17.93
2019-04-21T18:21:40.246Z,17.83
2019-04-21T18:24:23.026Z,17.66
2019-04-21T18:30:08.364Z,17.68
2019-04-21T18:32:42.545Z,17.69
2019-04-21T18:35:37.779Z,17.63
2019-04-21T18:42:18.604Z,17.40
2019-04-21T18:48:04.863Z,17.36
2019-04-21T18:50:58.892Z,17.26
2019-04-21T18:53:48.015Z,17.06
2019-04-21T18:56:08.262Z,17.04
2019-04-21T18:59:02.600Z,16.96
2019-04-21T19:04:17.098Z,16.81
2019-04-21T19:07:17.969Z,16.57
2019-04-21T19:10:16.024Z,16.58
2019-04-21T19:13:20.491Z,16.67
2019-04-21T19:20:47.517Z,16.43
2019-04-21T19:23:39.164Z,16.27
2019-04-21T19:26:09.970Z,16.15
2019-04-21T19:28:52.598Z,16.03
2019-04-21T19:31:39.797Z,16.06
2019-04-21T19:34:01.042Z,16.04
2019-04-21T19:36:51.206Z,15.91
2019-04-21T19:39:39.244Z,15.85
2019-04-21T19:45:17.613Z,15.65
2019-04-21T19:48:15.374Z,15.66
2019-04-21T19:50:50.549Z,15.37
2019-04-21T19:53:37.111Z,15.39
2019-04-21T19:56:11.976Z,15.23
2019-04-21T20:01:33.125Z,15.12
2019-04-21T20:04:12.717Z,15.10
2019-04-21T20:07:02.862Z,14.92
2019-04-21T20:09:38.004Z,14.83
2019-04-21T20:15:56.998Z,14.65
2019-04-21T20:18:34.906Z,14.63
2019-04-21T20:21:08.152Z,14.56
2019-04-21T20:23:49.388Z,14.44
2019-04-21T20:26:35.696Z,14.33
2019-04-21T20:29:31.022Z,14.37
2019-04-21T20:32:17.873Z,14.41
2019-04-21T20:34:41.438Z,14.32
2019-04-21T20:37:15.015Z,14.29
2019-04-21T20:39:53.387Z,14.30
2019-04-21T20:42:38.941Z,14.40
2019-04-21T20:47:52.157Z,14.21
2019-04-21T20:51:11.836Z,14.19
2019-04-21T20:54:02.950Z,14.21
2019-04-21T20:57:02.681Z,14.30
2019-04-21T20:59:34.466Z,14.22
2019-04-21T21:02:07.024Z,14.14
2019-04-21T21:04:39.538Z,14.04
2019-04-21T21:07:45.895Z,14.09
2019-04-21T21:10:16.653Z,14.03
2019-04-21T21:13:06.155Z,14.07
2019-04-21T21:15:36.634Z,14.08
2019-04-21T21:18:15.512Z,14.03
2019-04-21T21:21:04.614Z,13.84
2019-04-21T21:23:52.751Z,13.82
2019-04-21T21:26:31.177Z,13.83
2019-04-21T21:29:00.348Z,13.96
2019-04-21T21:32:14.997Z,13.95
2019-04-21T21:34:40.978Z,13.91
2019-04-21T21:37:21.750Z,13.74
2019-04-21T21:40:15.752Z,13.66
2019-04-21T21:42:43.878Z,13.77
2019-04-21T21:45:25.534Z,13.75
2019-04-21T21:50:40.442Z,13.54
2019-04-21T21:53:28.525Z,13.39
2019-04-21T22:01:51.962Z,13.35
2019-04-21T22:07:49.262Z,13.27
2019-04-21T22:10:29.366Z,13.21
2019-04-21T22:13:06.066Z,12.91
2019-04-21T22:15:56.402Z,12.84
2019-04-21T22:18:34.664Z,12.79
2019-04-21T22:21:09.117Z,12.81
2019-04-21T22:26:39.316Z,12.63
2019-04-21T22:29:30.302Z,12.67
2019-04-21T22:32:17.470Z,12.43
2019-04-21T22:34:59.780Z,12.33
2019-04-21T22:37:38.036Z,12.35
2019-04-21T22:40:25.849Z,12.27
2019-04-21T22:43:04.977Z,12.25
2019-04-21T22:49:14.524Z,12.08
2019-04-21T22:51:49.980Z,12.15
2019-04-21T22:54:43.218Z,11.84
2019-04-21T22:57:51.781Z,11.81
2019-04-21T23:04:00.695Z,11.86
2019-04-21T23:06:59.278Z,12.01
2019-04-21T23:09:24.625Z,11.84
2019-04-21T23:12:00.006Z,11.83
2019-04-21T23:14:45.403Z,11.84
2019-04-21T23:17:46.260Z,11.83
2019-04-21T23:20:53.631Z,11.66
2019-04-21T23:23:35.739Z,11.62
2019-04-21T23:26:18.184Z,11.66
2019-04-21T23:28:47.898Z,11.67
2019-04-21T23:31:39.773Z,11.34
2019-04-21T23:33:54.507Z,11.30
2019-04-21T23:36:31.422Z,11.36
2019-04-21T23:39:22.629Z,11.40
2019-04-21T23:41:57.747Z,11.51
2019-04-21T23:44:41.770Z,11.48
2019-04-21T23:47:30.436Z,11.32
2019-04-21T23:49:54.551Z,11.27
2019-04-21T23:52:41.580Z,11.22
2019-04-21T23:55:14.560Z,11.12
2019-04-21T23:57:44.942Z,11.01
